Time,TemperatureF,DewpointF,PressureIn,WindDirection,WindDirectionDegrees,WindSpeedMPH,WindSpeedGustMPH,Humidity,HourlyPrecipIn,Conditions,Clouds,dailyrainin,SoftwareType,DateUTC
2013-04-21 00:00:00,58.9,48.0,29.94,NW,306,0.0,0.0,67,0.00,,CLR,0.00,VWS V14.00,2013-04-21 07:00:00,
2013-04-21 00:01:00,58.9,48.0,29.94,NW,307,0.0,0.0,67,0.00,,CLR,0.00,VWS V14.00,2013-04-21 07:01:00,
2013-04-21 00:06:00,58.4,47.5,29.94,NW,307,0.0,0.0,67,0.00,,CLR,0.00,VWS V14.00,2013-04-21 07:06:00,
2013-04-21 00:11:00,58.4,47.9,29.94,NW,306,0.0,0.0,68,0.00,,CLR,0.00,VWS V14.00,2013-04-21 07:11:00,
2013-04-21 00:16:00,58.3,47.8,29.94,NW,307,0.0,0.0,68,0.00,,CLR,0.00,VWS V14.00,2013-04-21 07:16:00,
2013-04-21 00:21:00,58.1,47.6,29.94,NW,307,0.0,0.0,68,0.00,,CLR,0.00,VWS V14.00,2013-04-21 07:21:00,
2013-04-21 00:26:00,57.8,47.7,29.94,NW,307,0.0,0.0,69,0.00,,CLR,0.00,VWS V14.00,2013-04-21 07:26:00,
2013-04-21 00:30:00,57.9,47.4,29.94,NW,307,0.0,0.0,68,0.00,,CLR,0.00,VWS V14.00,2013-04-21 07:30:00,
2013-04-21 00:31:00,57.6,47.5,29.94,NW,307,0.0,0.0,69,0.00,,CLR,0.00,VWS V14.00,2013-04-21 07:31:00,
2013-04-21 00:36:00,57.7,47.6,29.94,NW,307,0.0,0.0,69,0.00,,CLR,0.00,VWS V14.00,2013-04-21 07:36:00,
2013-04-21 00:41:00,57.3,47.2,29.94,NW,307,0.0,0.0,69,0.00,,CLR,0.00,VWS V14.00,2013-04-21 07:41:00,
2013-04-21 00:46:00,57.3,47.6,29.93,NW,307,0.0,0.0,70,0.00,,CLR,0.00,VWS V14.00,2013-04-21 07:46:00,
2013-04-21 00:51:00,57.0,46.9,29.94,NW,306,0.0,0.0,69,0.00,,CLR,0.00,VWS V14.00,2013-04-21 07:51:00,
2013-04-21 00:56:00,56.7,47.0,29.93,NW,307,0.0,0.0,70,0.00,,CLR,0.00,VWS V14.00,2013-04-21 07:56:00,
2013-04-21 01:00:00,56.9,47.6,29.93,NW,307,0.0,0.0,71,0.00,,CLR,0.00,VWS V14.00,2013-04-21 08:00:00,
2013-04-21 01:01:00,56.7,47.4,29.94,NW,307,0.0,0.0,71,0.00,,CLR,0.00,VWS V14.00,2013-04-21 08:01:00,
2013-04-21 01:06:00,56.4,47.5,29.94,NW,307,0.0,0.0,72,0.00,,CLR,0.00,VWS V14.00,2013-04-21 08:06:00,
2013-04-21 01:11:00,56.4,47.5,29.93,NW,307,0.0,0.0,72,0.00,,CLR,0.00,VWS V14.00,2013-04-21 08:11:00,
2013-04-21 01:16:00,56.2,47.3,29.93,NW,307,0.0,0.0,72,0.00,,CLR,0.00,VWS V14.00,2013-04-21 08:16:00,
2013-04-21 01:21:00,56.1,47.2,29.94,NW,306,0.0,0.0,72,0.00,,CLR,0.00,VWS V14.00,2013-04-21 08:21:00,
2013-04-21 01:26:00,56.1,47.2,29.94,NW,306,0.0,0.0,72,0.00,,CLR,0.00,VWS V14.00,2013-04-21 08:26:00,
2013-04-21 01:30:00,56.0,47.1,29.94,NW,307,0.0,0.0,72,0.00,,CLR,0.00,VWS V14.00,2013-04-21 08:30:00,
2013-04-21 01:31:00,56.0,47.1,29.93,NW,307,0.0,0.0,72,0.00,,CLR,0.00,VWS V14.00,2013-04-21 08:31:00,
2013-04-21 01:36:00,55.6,47.1,29.93,NW,307,0.0,0.0,73,0.00,,CLR,0.00,VWS V14.00,2013-04-21 08:36:00,
2013-04-21 01:41:00,55.5,47.0,29.93,NW,307,0.0,0.0,73,0.00,,CLR,0.00,VWS V14.00,2013-04-21 08:41:00,
2013-04-21 01:46:00,55.4,46.9,29.93,NW,307,0.0,0.0,73,0.00,,CLR,0.00,VWS V14.00,2013-04-21 08:46:00,
2013-04-21 01:51:00,55.3,46.8,29.93,NW,307,0.0,0.0,73,0.00,,CLR,0.00,VWS V14.00,2013-04-21 08:51:00,
2013-04-21 01:56:00,55.4,46.9,29.93,NW,307,0.0,0.0,73,0.00,,CLR,0.00,VWS V14.00,2013-04-21 08:56:00,
2013-04-21 02:00:00,55.3,46.8,29.93,NW,307,0.0,0.0,73,0.00,,CLR,0.00,VWS V14.00,2013-04-21 09:00:00,
2013-04-21 02:01:00,55.0,46.5,29.93,NW,307,0.0,0.0,73,0.00,,CLR,0.00,VWS V14.00,2013-04-21 09:01:00,
2013-04-21 02:06:00,55.1,46.6,29.93,NW,307,0.0,0.0,73,0.00,,CLR,0.00,VWS V14.00,2013-04-21 09:06:00,
2013-04-21 02:11:00,54.7,46.6,29.93,NW,307,0.0,0.0,74,0.00,,CLR,0.00,VWS V14.00,2013-04-21 09:11:00,
2013-04-21 02:16:00,54.8,46.7,29.92,NW,307,0.0,0.0,74,0.00,,CLR,0.00,VWS V14.00,2013-04-21 09:16:00,
2013-04-21 02:21:00,54.6,46.8,29.93,NW,306,0.0,0.0,75,0.00,,CLR,0.00,VWS V14.00,2013-04-21 09:21:00,
2013-04-21 02:26:00,54.4,46.7,29.92,NW,307,0.0,0.0,75,0.00,,CLR,0.00,VWS V14.00,2013-04-21 09:26:00,
2013-04-21 02:30:00,54.3,47.2,29.92,NW,307,0.0,0.0,77,0.00,,CLR,0.00,VWS V14.00,2013-04-21 09:30:00,
2013-04-21 02:31:00,54.1,47.1,29.92,NW,307,0.0,0.0,77,0.00,,CLR,0.00,VWS V14.00,2013-04-21 09:31:00,
2013-04-21 02:36:00,54.2,47.5,29.92,NW,307,0.0,0.0,78,0.00,,CLR,0.00,VWS V14.00,2013-04-21 09:36:00,
2013-04-21 02:41:00,54.0,47.6,29.92,NW,307,0.0,0.0,79,0.00,,CLR,0.00,VWS V14.00,2013-04-21 09:41:00,
2013-04-21 02:46:00,53.8,47.5,29.92,NW,307,0.0,0.0,79,0.00,,CLR,0.00,VWS V14.00,2013-04-21 09:46:00,
2013-04-21 02:51:00,53.9,47.5,29.92,NW,307,0.0,0.0,79,0.00,,CLR,0.00,VWS V14.00,2013-04-21 09:51:00,
2013-04-21 02:56:00,53.5,47.2,29.92,NW,306,0.0,0.0,79,0.00,,CLR,0.00,VWS V14.00,2013-04-21 09:56:00,
2013-04-21 03:00:00,53.7,47.7,29.92,NW,307,0.0,0.0,80,0.00,,CLR,0.00,VWS V14.00,2013-04-21 10:00:00,
2013-04-21 03:01:00,53.4,47.4,29.92,NW,307,0.0,0.0,80,0.00,,CLR,0.00,VWS V14.00,2013-04-21 10:01:00,
2013-04-21 03:06:00,53.3,47.0,29.92,NW,307,0.0,0.0,79,0.00,,CLR,0.00,VWS V14.00,2013-04-21 10:06:00,
2013-04-21 03:11:00,53.3,47.3,29.92,NW,307,0.0,0.0,80,0.00,,CLR,0.00,VWS V14.00,2013-04-21 10:11:00,
2013-04-21 03:16:00,53.3,47.3,29.91,NW,307,0.0,0.0,80,0.00,,CLR,0.00,VWS V14.00,2013-04-21 10:16:00,
2013-04-21 03:21:00,53.1,47.1,29.91,NW,307,0.0,0.0,80,0.00,,CLR,0.00,VWS V14.00,2013-04-21 10:21:00,
2013-04-21 03:26:00,53.1,47.4,29.91,NW,307,0.0,0.0,81,0.00,,CLR,0.00,VWS V14.00,2013-04-21 10:26:00,
2013-04-21 03:30:00,52.8,47.1,29.91,NW,307,0.0,0.0,81,0.00,,CLR,0.00,VWS V14.00,2013-04-21 10:30:00,
2013-04-21 03:31:00,52.9,47.2,29.91,NW,307,0.0,0.0,81,0.00,,CLR,0.00,VWS V14.00,2013-04-21 10:31:00,
2013-04-21 03:36:00,52.7,47.0,29.91,NW,307,0.0,0.0,81,0.00,,CLR,0.00,VWS V14.00,2013-04-21 10:36:00,
2013-04-21 03:41:00,52.5,46.8,29.91,NW,306,0.0,0.0,81,0.00,,CLR,0.00,VWS V14.00,2013-04-21 10:41:00,
2013-04-21 03:46:00,52.5,46.8,29.91,NW,307,0.0,0.0,81,0.00,,CLR,0.00,VWS V14.00,2013-04-21 10:46:00,
2013-04-21 03:51:00,52.5,46.8,29.90,NW,306,0.0,0.0,81,0.00,,CLR,0.00,VWS V14.00,2013-04-21 10:51:00,
2013-04-21 03:56:00,52.3,46.7,29.91,NW,306,0.0,0.0,81,0.00,,CLR,0.00,VWS V14.00,2013-04-21 10:56:00,
2013-04-21 04:00:00,52.1,46.5,29.91,NW,307,0.0,0.0,81,0.00,,CLR,0.00,VWS V14.00,2013-04-21 11:00:00,
2013-04-21 04:01:00,52.1,46.5,29.91,NW,307,0.0,0.0,81,0.00,,CLR,0.00,VWS V14.00,2013-04-21 11:01:00,
2013-04-21 04:06:00,52.1,46.5,29.91,NW,307,0.0,0.0,81,0.00,,CLR,0.00,VWS V14.00,2013-04-21 11:06:00,
2013-04-21 04:11:00,51.9,46.3,29.91,NW,307,0.0,0.0,81,0.00,,CLR,0.00,VWS V14.00,2013-04-21 11:11:00,
2013-04-21 04:16:00,52.1,46.8,29.91,NW,306,0.0,0.0,82,0.00,,CLR,0.00,VWS V14.00,2013-04-21 11:16:00,
2013-04-21 04:21:00,52.0,46.7,29.92,NW,307,0.0,0.0,82,0.00,,CLR,0.00,VWS V14.00,2013-04-21 11:21:00,
2013-04-21 04:26:00,51.7,46.4,29.91,NW,307,0.0,0.0,82,0.00,,CLR,0.00,VWS V14.00,2013-04-21 11:26:00,
2013-04-21 04:30:00,51.9,46.6,29.91,NW,307,0.0,0.0,82,0.00,,CLR,0.00,VWS V14.00,2013-04-21 11:30:00,
2013-04-21 04:31:00,51.7,46.4,29.91,NW,307,0.0,0.0,82,0.00,,CLR,0.00,VWS V14.00,2013-04-21 11:31:00,
2013-04-21 04:36:00,51.6,46.6,29.92,NW,306,0.0,0.0,83,0.00,,CLR,0.00,VWS V14.00,2013-04-21 11:36:00,
2013-04-21 04:41:00,51.6,46.3,29.91,NW,307,0.0,0.0,82,0.00,,CLR,0.00,VWS V14.00,2013-04-21 11:41:00,
2013-04-21 04:46:00,51.5,46.5,29.92,NW,306,0.0,0.0,83,0.00,,CLR,0.00,VWS V14.00,2013-04-21 11:46:00,
2013-04-21 04:51:00,51.2,46.2,29.91,NW,307,0.0,0.0,83,0.00,,CLR,0.00,VWS V14.00,2013-04-21 11:51:00,
2013-04-21 04:56:00,51.6,46.6,29.91,NW,307,0.0,0.0,83,0.00,,CLR,0.00,VWS V14.00,2013-04-21 11:56:00,
2013-04-21 05:00:00,51.6,46.6,29.92,NW,307,0.0,0.0,83,0.00,,CLR,0.00,VWS V14.00,2013-04-21 12:00:00,
2013-04-21 05:01:00,51.4,46.4,29.91,NW,306,0.0,0.0,83,0.00,,CLR,0.00,VWS V14.00,2013-04-21 12:01:00,
2013-04-21 05:06:00,51.3,46.3,29.91,NW,307,0.0,0.0,83,0.00,,CLR,0.00,VWS V14.00,2013-04-21 12:06:00,
2013-04-21 05:11:00,51.4,46.7,29.91,NW,306,0.0,0.0,84,0.00,,CLR,0.00,VWS V14.00,2013-04-21 12:11:00,
2013-04-21 05:16:00,51.0,46.3,29.91,NW,307,0.0,0.0,84,0.00,,CLR,0.00,VWS V14.00,2013-04-21 12:16:00,
2013-04-21 05:21:00,51.0,46.3,29.91,NW,307,0.0,0.0,84,0.00,,CLR,0.00,VWS V14.00,2013-04-21 12:21:00,
2013-04-21 05:26:00,51.0,46.3,29.91,NW,307,0.0,0.0,84,0.00,,CLR,0.00,VWS V14.00,2013-04-21 12:26:00,
2013-04-21 05:30:00,50.9,46.2,29.91,NW,307,0.0,0.0,84,0.00,,CLR,0.00,VWS V14.00,2013-04-21 12:30:00,
2013-04-21 05:31:00,50.8,46.2,29.91,NW,307,0.0,0.0,84,0.00,,CLR,0.00,VWS V14.00,2013-04-21 12:31:00,
2013-04-21 05:36:00,50.6,46.0,29.91,NW,307,0.0,0.0,84,0.00,,CLR,0.00,VWS V14.00,2013-04-21 12:36:00,
2013-04-21 05:41:00,50.8,46.2,29.92,NW,306,0.0,0.0,84,0.00,,CLR,0.00,VWS V14.00,2013-04-21 12:41:00,
2013-04-21 05:46:00,50.4,45.8,29.92,NW,307,0.0,0.0,84,0.00,,CLR,0.00,VWS V14.00,2013-04-21 12:46:00,
2013-04-21 05:51:00,50.5,46.2,29.92,NW,307,0.0,0.0,85,0.00,,CLR,0.00,VWS V14.00,2013-04-21 12:51:00,
2013-04-21 05:56:00,50.6,46.3,29.91,NW,307,0.0,0.0,85,0.00,,CLR,0.00,VWS V14.00,2013-04-21 12:56:00,
2013-04-21 06:00:00,50.3,46.0,29.92,NW,306,0.0,0.0,85,0.00,,CLR,0.00,VWS V14.00,2013-04-21 13:00:00,
2013-04-21 06:01:00,50.3,46.3,29.92,NW,307,0.0,0.0,86,0.00,,CLR,0.00,VWS V14.00,2013-04-21 13:01:00,
2013-04-21 06:06:00,50.3,46.3,29.92,NW,306,0.0,0.0,86,0.00,,CLR,0.00,VWS V14.00,2013-04-21 13:06:00,
2013-04-21 06:11:00,50.2,46.2,29.92,NW,307,0.0,0.0,86,0.00,,CLR,0.00,VWS V14.00,2013-04-21 13:11:00,
2013-04-21 06:16:00,50.1,46.1,29.92,NW,307,0.0,0.0,86,0.00,,CLR,0.00,VWS V14.00,2013-04-21 13:16:00,
2013-04-21 06:21:00,50.0,46.0,29.92,NW,307,0.0,0.0,86,0.00,,CLR,0.00,VWS V14.00,2013-04-21 13:21:00,
2013-04-21 06:26:00,50.0,46.0,29.92,NW,307,0.0,0.0,86,0.00,,CLR,0.00,VWS V14.00,2013-04-21 13:26:00,
2013-04-21 06:30:00,49.9,46.2,29.92,NW,307,0.0,0.0,87,0.00,,CLR,0.00,VWS V14.00,2013-04-21 13:30:00,
2013-04-21 06:31:00,49.9,46.2,29.92,NW,307,0.0,0.0,87,0.00,,CLR,0.00,VWS V14.00,2013-04-21 13:31:00,
2013-04-21 06:36:00,49.8,45.8,29.92,NW,307,0.0,0.0,86,0.00,,CLR,0.00,VWS V14.00,2013-04-21 13:36:00,
2013-04-21 06:41:00,49.8,46.1,29.92,NW,307,0.0,0.0,87,0.00,,CLR,0.00,VWS V14.00,2013-04-21 13:41:00,
2013-04-21 06:46:00,49.7,46.0,29.92,NW,307,0.0,0.0,87,0.00,,CLR,0.00,VWS V14.00,2013-04-21 13:46:00,
2013-04-21 06:51:00,49.6,45.9,29.92,NW,307,0.0,0.0,87,0.00,,CLR,0.00,VWS V14.00,2013-04-21 13:51:00,
2013-04-21 06:56:00,49.8,46.1,29.92,NW,306,0.0,0.0,87,0.00,,CLR,0.00,VWS V14.00,2013-04-21 13:56:00,
2013-04-21 07:00:00,49.7,46.0,29.93,NW,306,0.0,0.0,87,0.00,,CLR,0.00,VWS V14.00,2013-04-21 14:00:00,
2013-04-21 07:01:00,49.9,46.2,29.93,NW,306,0.0,0.0,87,0.00,,CLR,0.00,VWS V14.00,2013-04-21 14:01:00,
2013-04-21 07:06:00,50.1,46.7,29.93,NW,307,0.0,0.0,88,0.00,,CLR,0.00,VWS V14.00,2013-04-21 14:06:00,
2013-04-21 07:11:00,50.0,46.6,29.94,NW,306,0.0,0.0,88,0.00,,CLR,0.00,VWS V14.00,2013-04-21 14:11:00,
2013-04-21 07:16:00,50.0,46.3,29.93,NW,307,0.0,0.0,87,0.00,,CLR,0.00,VWS V14.00,2013-04-21 14:16:00,
2013-04-21 07:21:00,50.2,46.8,29.93,NW,323,0.0,0.0,88,0.00,,CLR,0.00,VWS V14.00,2013-04-21 14:21:00,
2013-04-21 07:26:00,50.4,46.7,29.94,NW,323,0.0,0.0,87,0.00,,CLR,0.00,VWS V14.00,2013-04-21 14:26:00,
2013-04-21 07:30:00,50.4,46.7,29.94,NW,323,0.0,0.0,87,0.00,,CLR,0.00,VWS V14.00,2013-04-21 14:30:00,
2013-04-21 07:31:00,50.6,47.2,29.94,NW,323,0.0,0.0,88,0.00,,CLR,0.00,VWS V14.00,2013-04-21 14:31:00,
2013-04-21 07:36:00,50.8,47.1,29.94,NW,323,0.0,0.0,87,0.00,,CLR,0.00,VWS V14.00,2013-04-21 14:36:00,
2013-04-21 07:41:00,50.8,46.8,29.94,NW,323,0.0,0.0,86,0.00,,CLR,0.00,VWS V14.00,2013-04-21 14:41:00,
2013-04-21 07:46:00,51.1,47.4,29.95,NW,320,0.0,1.0,87,0.00,,CLR,0.00,VWS V14.00,2013-04-21 14:46:00,
2013-04-21 07:51:00,51.4,47.7,29.95,NW,320,0.0,1.0,87,0.00,,CLR,0.00,VWS V14.00,2013-04-21 14:51:00,
2013-04-21 07:56:00,52.0,48.0,29.95,NW,320,0.0,1.0,86,0.00,,CLR,0.00,VWS V14.00,2013-04-21 14:56:00,
2013-04-21 08:00:00,51.9,47.8,29.95,NW,320,0.0,1.0,86,0.00,,CLR,0.00,VWS V14.00,2013-04-21 15:00:00,
2013-04-21 08:01:00,51.9,47.8,29.95,NW,320,0.0,0.0,86,0.00,,CLR,0.00,VWS V14.00,2013-04-21 15:01:00,
2013-04-21 08:06:00,52.2,47.8,29.95,NW,320,0.0,1.0,85,0.00,,CLR,0.00,VWS V14.00,2013-04-21 15:06:00,
2013-04-21 08:11:00,52.8,48.1,29.96,NW,320,0.0,1.0,84,0.00,,CLR,0.00,VWS V14.00,2013-04-21 15:11:00,
2013-04-21 08:17:00,53.0,48.0,29.95,NW,320,0.0,1.0,83,0.00,,CLR,0.00,VWS V14.00,2013-04-21 15:17:00,
2013-04-21 08:22:00,53.4,48.0,29.95,NW,320,0.0,1.0,82,0.00,,CLR,0.00,VWS V14.00,2013-04-21 15:22:00,
2013-04-21 08:27:00,53.5,48.2,29.95,NW,320,0.0,1.0,82,0.00,,CLR,0.00,VWS V14.00,2013-04-21 15:27:00,
2013-04-21 08:30:00,53.8,47.8,29.95,NW,320,0.0,1.0,80,0.00,,CLR,0.00,VWS V14.00,2013-04-21 15:30:00,
2013-04-21 08:32:00,54.2,48.2,29.96,NW,320,0.0,0.0,80,0.00,,CLR,0.00,VWS V14.00,2013-04-21 15:32:00,
2013-04-21 08:37:00,54.4,48.4,29.96,NW,320,0.0,0.0,80,0.00,,CLR,0.00,VWS V14.00,2013-04-21 15:37:00,
2013-04-21 08:42:00,54.8,48.8,29.95,NNW,328,0.0,1.0,80,0.00,,CLR,0.00,VWS V14.00,2013-04-21 15:42:00,
2013-04-21 08:47:00,55.3,48.9,29.95,NNW,328,0.0,1.0,79,0.00,,CLR,0.00,VWS V14.00,2013-04-21 15:47:00,
2013-04-21 08:52:00,55.6,48.5,29.95,NNW,328,0.0,1.0,77,0.00,,CLR,0.00,VWS V14.00,2013-04-21 15:52:00,
2013-04-21 08:57:00,56.1,49.0,29.95,NNW,328,0.0,1.0,77,0.00,,CLR,0.00,VWS V14.00,2013-04-21 15:57:00,
2013-04-21 09:00:00,56.2,49.1,29.96,NNW,328,0.0,1.0,77,0.00,,CLR,0.00,VWS V14.00,2013-04-21 16:00:00,
2013-04-21 09:02:00,56.2,48.8,29.95,NNW,328,0.0,0.0,76,0.00,,CLR,0.00,VWS V14.00,2013-04-21 16:02:00,
2013-04-21 09:07:00,56.8,49.7,29.95,NNW,328,0.0,0.0,77,0.00,,CLR,0.00,VWS V14.00,2013-04-21 16:07:00,
2013-04-21 09:12:00,57.3,49.8,29.95,NNW,328,0.0,0.0,76,0.00,,CLR,0.00,VWS V14.00,2013-04-21 16:12:00,
2013-04-21 09:17:00,57.7,49.8,29.96,NNW,328,0.0,0.0,75,0.00,,CLR,0.00,VWS V14.00,2013-04-21 16:17:00,
2013-04-21 09:22:00,58.2,50.0,29.95,NNW,328,0.0,0.0,74,0.00,,CLR,0.00,VWS V14.00,2013-04-21 16:22:00,
2013-04-21 09:27:00,58.7,50.1,29.95,NNW,328,0.0,0.0,73,0.00,,CLR,0.00,VWS V14.00,2013-04-21 16:27:00,
2013-04-21 09:30:00,59.3,49.9,29.95,NNW,328,0.0,1.0,71,0.00,,CLR,0.00,VWS V14.00,2013-04-21 16:30:00,
2013-04-21 09:32:00,59.3,49.9,29.95,NNW,328,0.0,0.0,71,0.00,,CLR,0.00,VWS V14.00,2013-04-21 16:32:00,
2013-04-21 09:37:00,59.9,50.1,29.95,West,279,0.0,1.0,70,0.00,,CLR,0.00,VWS V14.00,2013-04-21 16:37:00,
2013-04-21 09:42:00,60.6,50.8,29.95,West,279,0.0,1.0,70,0.00,,CLR,0.00,VWS V14.00,2013-04-21 16:42:00,
2013-04-21 09:47:00,61.3,50.7,29.95,West,279,0.0,1.0,68,0.00,,CLR,0.00,VWS V14.00,2013-04-21 16:47:00,
2013-04-21 09:52:00,62.0,49.7,29.95,West,280,0.0,1.0,64,0.00,,CLR,0.00,VWS V14.00,2013-04-21 16:52:00,
2013-04-21 09:57:00,62.3,48.7,29.95,West,279,0.0,1.0,61,0.00,,CLR,0.00,VWS V14.00,2013-04-21 16:57:00,
2013-04-21 10:00:00,62.9,48.4,29.95,West,279,0.0,1.0,59,0.00,,CLR,0.00,VWS V14.00,2013-04-21 17:00:00,
2013-04-21 10:01:00,63.2,48.7,29.95,West,279,0.0,0.0,59,0.00,,CLR,0.00,VWS V14.00,2013-04-21 17:01:00,
2013-04-21 10:06:00,63.8,47.3,29.95,West,279,0.0,1.0,55,0.00,,CLR,0.00,VWS V14.00,2013-04-21 17:06:00,
2013-04-21 10:11:00,64.6,47.1,29.95,West,279,0.0,1.0,53,0.00,,CLR,0.00,VWS V14.00,2013-04-21 17:11:00,
2013-04-21 10:16:00,65.2,47.7,29.95,West,279,1.0,1.0,53,0.00,,CLR,0.00,VWS V14.00,2013-04-21 17:16:00,
2013-04-21 10:21:00,66.0,47.9,29.96,South,184,0.0,2.0,52,0.00,,CLR,0.00,VWS V14.00,2013-04-21 17:21:00,
2013-04-21 10:26:00,66.6,47.9,29.95,South,189,0.0,2.0,51,0.00,,CLR,0.00,VWS V14.00,2013-04-21 17:26:00,
2013-04-21 10:30:00,66.8,48.1,29.96,South,189,0.0,2.0,51,0.00,,CLR,0.00,VWS V14.00,2013-04-21 17:30:00,
2013-04-21 10:31:00,66.9,43.7,29.96,NNW,342,0.0,3.0,43,0.00,,CLR,0.00,VWS V14.00,2013-04-21 17:31:00,
2013-04-21 10:36:00,68.0,46.5,29.96,NNE,24,0.0,3.0,46,0.00,,CLR,0.00,VWS V14.00,2013-04-21 17:36:00,
2013-04-21 10:41:00,68.7,46.5,29.95,NNE,19,0.0,3.0,45,0.00,,CLR,0.00,VWS V14.00,2013-04-21 17:41:00,
2013-04-21 10:46:00,69.2,45.8,29.96,NNE,19,0.0,3.0,43,0.00,,CLR,0.00,VWS V14.00,2013-04-21 17:46:00,
2013-04-21 10:51:00,70.0,45.2,29.95,NNE,32,0.0,5.0,41,0.00,,CLR,0.00,VWS V14.00,2013-04-21 17:51:00,
2013-04-21 10:56:00,70.5,45.7,29.95,NNW,334,0.0,5.0,41,0.00,,CLR,0.00,VWS V14.00,2013-04-21 17:56:00,
2013-04-21 11:00:00,71.1,44.9,29.96,NNE,20,1.0,5.0,39,0.00,,CLR,0.00,VWS V14.00,2013-04-21 18:00:00,
2013-04-21 11:01:00,71.2,44.3,29.96,North,11,0.0,1.0,38,0.00,,CLR,0.00,VWS V14.00,2013-04-21 18:01:00,
2013-04-21 11:06:00,72.0,45.7,29.95,NNE,20,0.0,4.0,39,0.00,,CLR,0.00,VWS V14.00,2013-04-21 18:06:00,
2013-04-21 11:11:00,72.4,45.4,29.95,NNW,345,3.0,4.0,38,0.00,,CLR,0.00,VWS V14.00,2013-04-21 18:11:00,
2013-04-21 11:16:00,73.3,44.8,29.95,North,1,0.0,6.0,36,0.00,,CLR,0.00,VWS V14.00,2013-04-21 18:16:00,
2013-04-21 11:21:00,73.9,44.5,29.95,NNW,341,0.0,6.0,35,0.00,,CLR,0.00,VWS V14.00,2013-04-21 18:21:00,
2013-04-21 11:26:00,74.2,44.1,29.95,North,359,0.0,6.0,34,0.00,,CLR,0.00,VWS V14.00,2013-04-21 18:26:00,
2013-04-21 11:30:00,74.5,44.3,29.94,North,0,0.0,6.0,34,0.00,,CLR,0.00,VWS V14.00,2013-04-21 18:30:00,
2013-04-21 11:31:00,74.7,46.0,29.95,NNE,16,0.0,1.0,36,0.00,,CLR,0.00,VWS V14.00,2013-04-21 18:31:00,
2013-04-21 11:36:00,75.1,45.6,29.94,NNE,14,0.0,2.0,35,0.00,,CLR,0.00,VWS V14.00,2013-04-21 18:36:00,
2013-04-21 11:41:00,75.8,46.2,29.94,NNE,24,3.0,5.0,35,0.00,,CLR,0.00,VWS V14.00,2013-04-21 18:41:00,
2013-04-21 11:47:00,76.2,45.0,29.95,North,7,0.0,5.0,33,0.00,,CLR,0.00,VWS V14.00,2013-04-21 18:47:00,
2013-04-21 11:52:00,76.8,43.0,29.94,NE,52,1.0,6.0,30,0.00,,CLR,0.00,VWS V14.00,2013-04-21 18:52:00,
2013-04-21 11:57:00,77.4,43.6,29.94,NNE,15,1.0,6.0,30,0.00,,CLR,0.00,VWS V14.00,2013-04-21 18:57:00,
2013-04-21 12:00:00,77.7,42.9,29.94,North,0,0.0,6.0,29,0.00,,CLR,0.00,VWS V14.00,2013-04-21 19:00:00,
2013-04-21 12:02:00,77.8,43.9,29.94,WNW,297,0.0,3.0,30,0.00,,CLR,0.00,VWS V14.00,2013-04-21 19:02:00,
2013-04-21 12:07:00,78.3,44.3,29.95,NE,51,0.0,3.0,30,0.00,,CLR,0.00,VWS V14.00,2013-04-21 19:07:00,
2013-04-21 12:12:00,78.9,44.9,29.94,North,3,0.0,3.0,30,0.00,,CLR,0.00,VWS V14.00,2013-04-21 19:12:00,
2013-04-21 12:17:00,79.4,42.5,29.94,NNW,328,0.0,4.0,27,0.00,,CLR,0.00,VWS V14.00,2013-04-21 19:17:00,
2013-04-21 12:22:00,79.7,42.8,29.94,NE,40,0.0,4.0,27,0.00,,CLR,0.00,VWS V14.00,2013-04-21 19:22:00,
2013-04-21 12:27:00,80.2,42.2,29.94,North,3,0.0,4.0,26,0.00,,CLR,0.00,VWS V14.00,2013-04-21 19:27:00,
2013-04-21 12:30:00,80.5,43.5,29.93,North,0,0.0,4.0,27,0.00,,CLR,0.00,VWS V14.00,2013-04-21 19:30:00,
2013-04-21 12:32:00,80.7,43.7,29.93,NNW,340,1.0,3.0,27,0.00,,CLR,0.00,VWS V14.00,2013-04-21 19:32:00,
2013-04-21 12:37:00,81.2,44.1,29.93,North,0,0.0,3.0,27,0.00,,CLR,0.00,VWS V14.00,2013-04-21 19:37:00,
2013-04-21 12:42:00,81.9,44.7,29.92,North,9,2.0,6.0,27,0.00,,CLR,0.00,VWS V14.00,2013-04-21 19:42:00,
2013-04-21 12:47:00,82.3,45.0,29.93,North,358,0.0,6.0,27,0.00,,CLR,0.00,VWS V14.00,2013-04-21 19:47:00,
2013-04-21 12:52:00,82.9,45.5,29.92,NNE,28,0.0,6.0,27,0.00,,CLR,0.00,VWS V14.00,2013-04-21 19:52:00,
2013-04-21 12:57:00,83.6,45.1,29.91,WNW,300,0.0,6.0,26,0.00,,CLR,0.00,VWS V14.00,2013-04-21 19:57:00,
2013-04-21 13:00:00,83.6,44.1,29.92,NNW,332,0.0,6.0,25,0.00,,CLR,0.00,VWS V14.00,2013-04-21 20:00:00,
2013-04-21 13:02:00,83.7,43.1,29.92,NNW,334,0.0,1.0,24,0.00,,CLR,0.00,VWS V14.00,2013-04-21 20:02:00,
2013-04-21 13:07:00,84.3,43.6,29.92,NE,35,0.0,2.0,24,0.00,,CLR,0.00,VWS V14.00,2013-04-21 20:07:00,
2013-04-21 13:12:00,84.9,44.1,29.91,North,0,0.0,2.0,24,0.00,,CLR,0.00,VWS V14.00,2013-04-21 20:12:00,
2013-04-21 13:17:00,85.0,44.2,29.91,NNE,27,1.0,6.0,24,0.00,,CLR,0.00,VWS V14.00,2013-04-21 20:17:00,
2013-04-21 13:22:00,85.5,45.7,29.91,NNE,32,0.0,6.0,25,0.00,,CLR,0.00,VWS V14.00,2013-04-21 20:22:00,
2013-04-21 13:27:00,86.0,46.1,29.91,NE,36,0.0,6.0,25,0.00,,CLR,0.00,VWS V14.00,2013-04-21 20:27:00,
2013-04-21 13:30:00,86.2,46.3,29.91,NE,36,0.0,6.0,25,0.00,,CLR,0.00,VWS V14.00,2013-04-21 20:30:00,
2013-04-21 13:32:00,86.6,47.7,29.91,NE,35,0.0,1.0,26,0.00,,CLR,0.00,VWS V14.00,2013-04-21 20:32:00,
2013-04-21 13:37:00,86.9,47.9,29.90,NNE,14,1.0,2.0,26,0.00,,CLR,0.00,VWS V14.00,2013-04-21 20:37:00,
2013-04-21 13:42:00,87.3,48.3,29.91,NNE,22,0.0,3.0,26,0.00,,CLR,0.00,VWS V14.00,2013-04-21 20:42:00,
2013-04-21 13:47:00,87.7,47.5,29.90,North,3,1.0,3.0,25,0.00,,CLR,0.00,VWS V14.00,2013-04-21 20:47:00,
2013-04-21 13:52:00,88.3,45.8,29.90,NNW,335,3.0,3.0,23,0.00,,CLR,0.00,VWS V14.00,2013-04-21 20:52:00,
2013-04-21 13:57:00,88.8,45.1,29.90,WNW,286,0.0,3.0,22,0.00,,CLR,0.00,VWS V14.00,2013-04-21 20:57:00,
2013-04-21 14:00:00,89.1,45.3,29.90,West,273,0.0,3.0,22,0.00,,CLR,0.00,VWS V14.00,2013-04-21 21:00:00,
2013-04-21 14:02:00,88.9,46.3,29.90,WNW,301,0.0,1.0,23,0.00,,CLR,0.00,VWS V14.00,2013-04-21 21:02:00,
2013-04-21 14:07:00,89.6,48.1,29.90,NNW,336,0.0,3.0,24,0.00,,CLR,0.00,VWS V14.00,2013-04-21 21:07:00,
2013-04-21 14:12:00,89.7,44.6,29.90,NNW,334,0.0,3.0,21,0.00,,CLR,0.00,VWS V14.00,2013-04-21 21:12:00,
2013-04-21 14:17:00,89.9,47.2,29.90,WNW,300,0.0,3.0,23,0.00,,CLR,0.00,VWS V14.00,2013-04-21 21:17:00,
2013-04-21 14:22:00,90.5,45.3,29.89,SSW,212,0.0,3.0,21,0.00,,CLR,0.00,VWS V14.00,2013-04-21 21:22:00,
2013-04-21 14:27:00,90.9,49.2,29.89,SW,214,0.0,3.0,24,0.00,,CLR,0.00,VWS V14.00,2013-04-21 21:27:00,
2013-04-21 14:30:00,91.3,45.9,29.90,SW,222,0.0,3.0,21,0.00,,CLR,0.00,VWS V14.00,2013-04-21 21:30:00,
2013-04-21 14:32:00,91.3,48.3,29.89,SW,222,0.0,0.0,23,0.00,,CLR,0.00,VWS V14.00,2013-04-21 21:32:00,
2013-04-21 14:37:00,92.0,48.9,29.89,WSW,250,0.0,2.0,23,0.00,,CLR,0.00,VWS V14.00,2013-04-21 21:37:00,
2013-04-21 14:42:00,92.1,46.6,29.89,WSW,251,0.0,2.0,21,0.00,,CLR,0.00,VWS V14.00,2013-04-21 21:42:00,
2013-04-21 14:47:00,92.2,49.1,29.89,North,0,0.0,2.0,23,0.00,,CLR,0.00,VWS V14.00,2013-04-21 21:47:00,
2013-04-21 14:52:00,92.3,46.8,29.89,North,0,0.0,3.0,21,0.00,,CLR,0.00,VWS V14.00,2013-04-21 21:52:00,
2013-04-21 14:57:00,92.3,46.8,29.89,NNW,334,0.0,3.0,21,0.00,,CLR,0.00,VWS V14.00,2013-04-21 21:57:00,
2013-04-21 15:00:00,92.1,46.6,29.89,NW,307,0.0,3.0,21,0.00,,CLR,0.00,VWS V14.00,2013-04-21 22:00:00,
2013-04-21 15:02:00,92.5,46.9,29.88,NW,304,0.0,2.0,21,0.00,,CLR,0.00,VWS V14.00,2013-04-21 22:02:00,
2013-04-21 15:07:00,93.1,47.4,29.88,WNW,302,0.0,2.0,21,0.00,,CLR,0.00,VWS V14.00,2013-04-21 22:07:00,
2013-04-21 15:12:00,93.2,48.7,29.88,NW,307,0.0,2.0,22,0.00,,CLR,0.00,VWS V14.00,2013-04-21 22:12:00,
2013-04-21 15:17:00,93.8,51.6,29.88,WNW,302,1.0,2.0,24,0.00,,CLR,0.00,VWS V14.00,2013-04-21 22:17:00,
2013-04-21 15:22:00,94.1,54.0,29.87,NNE,16,0.0,3.0,26,0.00,,CLR,0.00,VWS V14.00,2013-04-21 22:22:00,
2013-04-21 15:27:00,94.0,51.8,29.88,North,357,0.0,3.0,24,0.00,,CLR,0.00,VWS V14.00,2013-04-21 22:27:00,
2013-04-21 15:30:00,93.9,51.7,29.88,North,350,1.0,5.0,24,0.00,,CLR,0.00,VWS V14.00,2013-04-21 22:30:00,
2013-04-21 15:32:00,93.9,51.7,29.87,NNW,342,0.0,2.0,24,0.00,,CLR,0.00,VWS V14.00,2013-04-21 22:32:00,
2013-04-21 15:37:00,94.4,52.1,29.87,NNW,346,3.0,3.0,24,0.00,,CLR,0.00,VWS V14.00,2013-04-21 22:37:00,
2013-04-21 15:42:00,94.4,53.2,29.87,North,353,0.0,3.0,25,0.00,,CLR,0.00,VWS V14.00,2013-04-21 22:42:00,
2013-04-21 15:47:00,94.6,53.4,29.87,NW,321,0.0,4.0,25,0.00,,CLR,0.00,VWS V14.00,2013-04-21 22:47:00,
2013-04-21 15:52:00,94.6,52.2,29.87,North,0,1.0,5.0,24,0.00,,CLR,0.00,VWS V14.00,2013-04-21 22:52:00,
2013-04-21 15:57:00,94.3,53.1,29.87,SW,235,1.0,5.0,25,0.00,,CLR,0.00,VWS V14.00,2013-04-21 22:57:00,
2013-04-21 16:00:00,93.8,52.7,29.87,NNW,338,1.0,5.0,25,0.00,,CLR,0.00,VWS V14.00,2013-04-21 23:00:00,
2013-04-21 16:02:00,93.6,53.6,29.87,NNW,337,0.0,1.0,26,0.00,,CLR,0.00,VWS V14.00,2013-04-21 23:02:00,
2013-04-21 16:07:00,93.6,53.6,29.87,West,259,0.0,3.0,26,0.00,,CLR,0.00,VWS V14.00,2013-04-21 23:07:00,
2013-04-21 16:12:00,93.4,54.5,29.87,West,270,1.0,3.0,27,0.00,,CLR,0.00,VWS V14.00,2013-04-21 23:12:00,
2013-04-21 16:17:00,93.1,54.2,29.87,WSW,238,0.0,3.0,27,0.00,,CLR,0.00,VWS V14.00,2013-04-21 23:17:00,
2013-04-21 16:22:00,93.1,54.2,29.87,WNW,291,1.0,3.0,27,0.00,,CLR,0.00,VWS V14.00,2013-04-21 23:22:00,
2013-04-21 16:27:00,92.5,53.7,29.87,North,352,1.0,4.0,27,0.00,,CLR,0.00,VWS V14.00,2013-04-21 23:27:00,
2013-04-21 16:30:00,92.7,53.9,29.87,NW,325,0.0,4.0,27,0.00,,CLR,0.00,VWS V14.00,2013-04-21 23:30:00,
2013-04-21 16:32:00,92.7,53.9,29.86,NNE,22,1.0,2.0,27,0.00,,CLR,0.00,VWS V14.00,2013-04-21 23:32:00,
2013-04-21 16:37:00,92.7,54.8,29.86,North,0,0.0,2.0,28,0.00,,CLR,0.00,VWS V14.00,2013-04-21 23:37:00,
2013-04-21 16:42:00,92.1,53.3,29.87,SSW,193,0.0,6.0,27,0.00,,CLR,0.00,VWS V14.00,2013-04-21 23:42:00,
2013-04-21 16:47:00,92.0,53.3,29.86,SSW,200,0.0,6.0,27,0.00,,CLR,0.00,VWS V14.00,2013-04-21 23:47:00,
2013-04-21 16:52:00,91.9,53.2,29.86,WSW,250,0.0,6.0,27,0.00,,CLR,0.00,VWS V14.00,2013-04-21 23:52:00,
2013-04-21 16:57:00,91.8,54.1,29.86,SW,219,1.0,6.0,28,0.00,,CLR,0.00,VWS V14.00,2013-04-21 23:57:00,
2013-04-21 17:00:00,91.7,54.0,29.86,SW,235,0.0,6.0,28,0.00,,CLR,0.00,VWS V14.00,2013-04-22 00:00:00,
2013-04-21 17:02:00,91.5,52.8,29.86,WSW,243,0.0,1.0,27,0.00,,CLR,0.00,VWS V14.00,2013-04-22 00:02:00,
2013-04-21 17:07:00,91.4,54.7,29.86,WSW,240,0.0,3.0,29,0.00,,CLR,0.00,VWS V14.00,2013-04-22 00:07:00,
2013-04-21 17:12:00,91.6,54.9,29.85,WSW,248,0.0,3.0,29,0.00,,CLR,0.00,VWS V14.00,2013-04-22 00:12:00,
2013-04-21 17:17:00,91.3,53.7,29.85,SW,218,1.0,4.0,28,0.00,,CLR,0.00,VWS V14.00,2013-04-22 00:17:00,
2013-04-21 17:22:00,90.9,55.2,29.86,NW,322,0.0,4.0,30,0.00,,CLR,0.00,VWS V14.00,2013-04-22 00:22:00,
2013-04-21 17:27:00,90.6,55.0,29.86,NE,44,0.0,5.0,30,0.00,,CLR,0.00,VWS V14.00,2013-04-22 00:27:00,
2013-04-21 17:30:00,90.4,53.8,29.85,North,0,0.0,5.0,29,0.00,,CLR,0.00,VWS V14.00,2013-04-22 00:30:00,
2013-04-21 17:32:00,90.5,54.9,29.86,North,7,3.0,3.0,30,0.00,,CLR,0.00,VWS V14.00,2013-04-22 00:32:00,
2013-04-21 17:37:00,90.2,54.6,29.85,SW,226,0.0,4.0,30,0.00,,CLR,0.00,VWS V14.00,2013-04-22 00:37:00,
2013-04-21 17:42:00,89.5,54.0,29.85,NE,44,0.0,4.0,30,0.00,,CLR,0.00,VWS V14.00,2013-04-22 00:42:00,
2013-04-21 17:47:00,89.2,54.6,29.85,WNW,282,0.0,4.0,31,0.00,,CLR,0.00,VWS V14.00,2013-04-22 00:47:00,
2013-04-21 17:52:00,89.0,54.5,29.85,NNE,17,1.0,4.0,31,0.00,,CLR,0.00,VWS V14.00,2013-04-22 00:52:00,
2013-04-21 17:57:00,88.4,54.0,29.85,WSW,250,0.0,4.0,31,0.00,,CLR,0.00,VWS V14.00,2013-04-22 00:57:00,
2013-04-21 18:00:00,88.3,54.7,29.85,WSW,248,0.0,4.0,32,0.00,,CLR,0.00,VWS V14.00,2013-04-22 01:00:00,
2013-04-21 18:02:00,88.2,53.8,29.85,WSW,247,0.0,1.0,31,0.00,,CLR,0.00,VWS V14.00,2013-04-22 01:02:00,
2013-04-21 18:07:00,87.9,53.5,29.85,West,271,0.0,1.0,31,0.00,,CLR,0.00,VWS V14.00,2013-04-22 01:07:00,
2013-04-21 18:12:00,87.8,54.3,29.85,NNW,341,0.0,2.0,32,0.00,,CLR,0.00,VWS V14.00,2013-04-22 01:12:00,
2013-04-21 18:17:00,87.0,51.8,29.85,NW,324,0.0,2.0,30,0.00,,CLR,0.00,VWS V14.00,2013-04-22 01:17:00,
2013-04-21 18:22:00,86.7,50.7,29.84,NW,321,0.0,3.0,29,0.00,,CLR,0.00,VWS V14.00,2013-04-22 01:22:00,
2013-04-21 18:27:00,86.3,50.3,29.84,East,86,0.0,3.0,29,0.00,,CLR,0.00,VWS V14.00,2013-04-22 01:27:00,
2013-04-21 18:30:00,85.9,50.0,29.84,NE,56,0.0,3.0,29,0.00,,CLR,0.00,VWS V14.00,2013-04-22 01:30:00,
2013-04-21 18:32:00,85.9,50.0,29.85,NE,55,0.0,1.0,29,0.00,,CLR,0.00,VWS V14.00,2013-04-22 01:32:00,
2013-04-21 18:37:00,85.5,50.6,29.85,NE,54,0.0,1.0,30,0.00,,CLR,0.00,VWS V14.00,2013-04-22 01:37:00,
2013-04-21 18:42:00,85.0,50.1,29.84,NE,55,0.0,1.0,30,0.00,,CLR,0.00,VWS V14.00,2013-04-22 01:42:00,
2013-04-21 18:47:00,84.7,49.9,29.84,NE,54,0.0,1.0,30,0.00,,CLR,0.00,VWS V14.00,2013-04-22 01:47:00,
2013-04-21 18:52:00,84.3,49.5,29.84,NE,52,0.0,1.0,30,0.00,,CLR,0.00,VWS V14.00,2013-04-22 01:52:00,
2013-04-21 18:57:00,83.9,50.1,29.84,NE,52,0.0,1.0,31,0.00,,CLR,0.00,VWS V14.00,2013-04-22 01:57:00,
2013-04-21 19:00:00,83.5,51.4,29.85,NE,52,0.0,1.0,33,0.00,,CLR,0.00,VWS V14.00,2013-04-22 02:00:00,
2013-04-21 19:02:00,83.3,51.2,29.85,NE,52,0.0,0.0,33,0.00,,CLR,0.00,VWS V14.00,2013-04-22 02:02:00,
2013-04-21 19:07:00,83.2,51.1,29.84,NE,52,0.0,1.0,33,0.00,,CLR,0.00,VWS V14.00,2013-04-22 02:07:00,
2013-04-21 19:12:00,82.5,50.5,29.84,NE,51,0.0,1.0,33,0.00,,CLR,0.00,VWS V14.00,2013-04-22 02:12:00,
2013-04-21 19:17:00,82.1,51.8,29.84,NE,49,0.0,1.0,35,0.00,,CLR,0.00,VWS V14.00,2013-04-22 02:17:00,
2013-04-21 19:22:00,81.8,52.3,29.84,NE,48,0.0,1.0,36,0.00,,CLR,0.00,VWS V14.00,2013-04-22 02:22:00,
2013-04-21 19:27:00,81.3,51.1,29.84,NE,48,0.0,1.0,35,0.00,,CLR,0.00,VWS V14.00,2013-04-22 02:27:00,
2013-04-21 19:30:00,81.3,50.3,29.84,NNE,30,0.0,1.0,34,0.00,,CLR,0.00,VWS V14.00,2013-04-22 02:30:00,
2013-04-21 19:32:00,81.1,50.9,29.84,NNE,30,0.0,0.0,35,0.00,,CLR,0.00,VWS V14.00,2013-04-22 02:32:00,
2013-04-21 19:37:00,80.6,52.7,29.84,NNE,30,0.0,0.0,38,0.00,,CLR,0.00,VWS V14.00,2013-04-22 02:37:00,
2013-04-21 19:42:00,79.9,51.3,29.84,NNE,30,0.0,0.0,37,0.00,,CLR,0.00,VWS V14.00,2013-04-22 02:42:00,
2013-04-21 19:47:00,79.5,54.4,29.85,NNE,30,0.0,0.0,42,0.00,,CLR,0.00,VWS V14.00,2013-04-22 02:47:00,
2013-04-21 19:52:00,79.1,52.0,29.85,NNE,30,0.0,0.0,39,0.00,,CLR,0.00,VWS V14.00,2013-04-22 02:52:00,
2013-04-21 19:57:00,78.5,52.9,29.84,NNE,29,0.0,0.0,41,0.00,,CLR,0.00,VWS V14.00,2013-04-22 02:57:00,
2013-04-21 20:00:00,78.0,51.8,29.85,NNE,30,0.0,0.0,40,0.00,,CLR,0.00,VWS V14.00,2013-04-22 03:00:00,
2013-04-21 20:02:00,78.1,53.2,29.85,NNE,30,0.0,0.0,42,0.00,,CLR,0.00,VWS V14.00,2013-04-22 03:02:00,
2013-04-21 20:07:00,77.5,52.6,29.85,NNE,30,0.0,0.0,42,0.00,,CLR,0.00,VWS V14.00,2013-04-22 03:07:00,
2013-04-21 20:12:00,77.3,53.1,29.85,NNE,30,0.0,0.0,43,0.00,,CLR,0.00,VWS V14.00,2013-04-22 03:12:00,
2013-04-21 20:17:00,76.6,53.7,29.85,NNE,30,0.0,0.0,45,0.00,,CLR,0.00,VWS V14.00,2013-04-22 03:17:00,
2013-04-21 20:22:00,76.5,53.0,29.85,NNE,30,0.0,1.0,44,0.00,,CLR,0.00,VWS V14.00,2013-04-22 03:22:00,
2013-04-21 20:27:00,75.9,53.1,29.85,NNE,30,0.0,1.0,45,0.00,,CLR,0.00,VWS V14.00,2013-04-22 03:27:00,
2013-04-21 20:30:00,75.8,52.4,29.85,NNE,30,0.0,1.0,44,0.00,,CLR,0.00,VWS V14.00,2013-04-22 03:30:00,
2013-04-21 20:32:00,75.7,51.6,29.86,NNE,30,0.0,0.0,43,0.00,,CLR,0.00,VWS V14.00,2013-04-22 03:32:00,
2013-04-21 20:37:00,75.2,52.4,29.86,NNE,29,0.0,0.0,45,0.00,,CLR,0.00,VWS V14.00,2013-04-22 03:37:00,
2013-04-21 20:42:00,74.9,52.8,29.86,NNE,30,0.0,0.0,46,0.00,,CLR,0.00,VWS V14.00,2013-04-22 03:42:00,
2013-04-21 20:47:00,74.3,52.8,29.86,NNE,30,0.0,0.0,47,0.00,,CLR,0.00,VWS V14.00,2013-04-22 03:47:00,
2013-04-21 20:52:00,74.0,53.7,29.86,NNE,30,0.0,0.0,49,0.00,,CLR,0.00,VWS V14.00,2013-04-22 03:52:00,
2013-04-21 20:57:00,73.8,53.5,29.86,NE,38,0.0,1.0,49,0.00,,CLR,0.00,VWS V14.00,2013-04-22 03:57:00,
2013-04-21 21:00:00,73.5,53.2,29.87,NE,41,0.0,1.0,49,0.00,,CLR,0.00,VWS V14.00,2013-04-22 04:00:00,
2013-04-21 21:01:00,73.6,53.3,29.87,NE,42,0.0,0.0,49,0.00,,CLR,0.00,VWS V14.00,2013-04-22 04:01:00,
2013-04-21 21:06:00,73.1,52.3,29.87,NE,42,0.0,1.0,48,0.00,,CLR,0.00,VWS V14.00,2013-04-22 04:06:00,
2013-04-21 21:11:00,72.6,52.4,29.87,NE,49,0.0,1.0,49,0.00,,CLR,0.00,VWS V14.00,2013-04-22 04:11:00,
2013-04-21 21:16:00,72.8,51.4,29.87,NE,50,0.0,1.0,47,0.00,,CLR,0.00,VWS V14.00,2013-04-22 04:16:00,
2013-04-21 21:21:00,72.3,51.5,29.87,NE,50,0.0,1.0,48,0.00,,CLR,0.00,VWS V14.00,2013-04-22 04:21:00,
2013-04-21 21:26:00,72.3,52.6,29.87,NE,50,0.0,1.0,50,0.00,,CLR,0.00,VWS V14.00,2013-04-22 04:26:00,
2013-04-21 21:30:00,71.7,52.6,29.88,NE,50,0.0,1.0,51,0.00,,CLR,0.00,VWS V14.00,2013-04-22 04:30:00,
2013-04-21 21:31:00,71.5,51.9,29.87,NE,50,0.0,0.0,50,0.00,,CLR,0.00,VWS V14.00,2013-04-22 04:31:00,
2013-04-21 21:36:00,71.4,51.8,29.88,NE,50,0.0,0.0,50,0.00,,CLR,0.00,VWS V14.00,2013-04-22 04:36:00,
2013-04-21 21:41:00,70.9,51.3,29.88,NE,50,0.0,0.0,50,0.00,,CLR,0.00,VWS V14.00,2013-04-22 04:41:00,
2013-04-21 21:46:00,70.7,51.7,29.88,NE,50,0.0,0.0,51,0.00,,CLR,0.00,VWS V14.00,2013-04-22 04:46:00,
2013-04-21 21:51:00,70.3,51.9,29.88,NE,50,0.0,0.0,52,0.00,,CLR,0.00,VWS V14.00,2013-04-22 04:51:00,
2013-04-21 21:56:00,69.9,52.5,29.88,NE,50,0.0,0.0,54,0.00,,CLR,0.00,VWS V14.00,2013-04-22 04:56:00,
2013-04-21 22:00:00,69.6,52.2,29.88,NE,50,0.0,0.0,54,0.00,,CLR,0.00,VWS V14.00,2013-04-22 05:00:00,
2013-04-21 22:01:00,69.7,52.3,29.89,NE,50,0.0,0.0,54,0.00,,CLR,0.00,VWS V14.00,2013-04-22 05:01:00,
2013-04-21 22:06:00,69.5,52.6,29.88,NE,50,0.0,0.0,55,0.00,,CLR,0.00,VWS V14.00,2013-04-22 05:06:00,
2013-04-21 22:11:00,69.1,51.8,29.88,NE,50,0.0,0.0,54,0.00,,CLR,0.00,VWS V14.00,2013-04-22 05:11:00,
2013-04-21 22:16:00,68.8,52.5,29.89,NE,50,0.0,0.0,56,0.00,,CLR,0.00,VWS V14.00,2013-04-22 05:16:00,
2013-04-21 22:21:00,68.6,51.8,29.88,NE,50,0.0,0.0,55,0.00,,CLR,0.00,VWS V14.00,2013-04-22 05:21:00,
2013-04-21 22:26:00,68.5,52.7,29.89,NE,50,0.0,0.0,57,0.00,,CLR,0.00,VWS V14.00,2013-04-22 05:26:00,
2013-04-21 22:30:00,68.0,51.7,29.89,NE,50,0.0,0.0,56,0.00,,CLR,0.00,VWS V14.00,2013-04-22 05:30:00,
2013-04-21 22:31:00,67.8,51.5,29.88,NE,50,0.0,0.0,56,0.00,,CLR,0.00,VWS V14.00,2013-04-22 05:31:00,
2013-04-21 22:36:00,67.9,51.2,29.88,NE,50,0.0,0.0,55,0.00,,CLR,0.00,VWS V14.00,2013-04-22 05:36:00,
2013-04-21 22:41:00,67.4,50.7,29.89,NE,50,0.0,0.0,55,0.00,,CLR,0.00,VWS V14.00,2013-04-22 05:41:00,
2013-04-21 22:46:00,67.1,51.8,29.89,NE,50,0.0,0.0,58,0.00,,CLR,0.00,VWS V14.00,2013-04-22 05:46:00,
2013-04-21 22:51:00,66.6,50.9,29.89,NE,50,0.0,0.0,57,0.00,,CLR,0.00,VWS V14.00,2013-04-22 05:51:00,
2013-04-21 22:56:00,66.4,52.1,29.89,NE,50,0.0,0.0,60,0.00,,CLR,0.00,VWS V14.00,2013-04-22 05:56:00,
2013-04-21 23:00:00,66.2,52.4,29.89,NE,50,0.0,0.0,61,0.00,,CLR,0.00,VWS V14.00,2013-04-22 06:00:00,
2013-04-21 23:01:00,66.2,52.4,29.89,NE,50,0.0,0.0,61,0.00,,CLR,0.00,VWS V14.00,2013-04-22 06:01:00,
2013-04-21 23:06:00,65.9,52.1,29.88,NE,50,0.0,0.0,61,0.00,,CLR,0.00,VWS V14.00,2013-04-22 06:06:00,
2013-04-21 23:11:00,65.7,52.3,29.89,NE,50,0.0,0.0,62,0.00,,CLR,0.00,VWS V14.00,2013-04-22 06:11:00,
2013-04-21 23:16:00,65.5,52.6,29.88,NE,50,0.0,0.0,63,0.00,,CLR,0.00,VWS V14.00,2013-04-22 06:16:00,
2013-04-21 23:21:00,65.2,52.7,29.88,NE,50,0.0,0.0,64,0.00,,CLR,0.00,VWS V14.00,2013-04-22 06:21:00,
2013-04-21 23:26:00,64.9,52.5,29.88,NE,50,0.0,0.0,64,0.00,,CLR,0.00,VWS V14.00,2013-04-22 06:26:00,
2013-04-21 23:30:00,64.9,52.5,29.88,NE,50,0.0,0.0,64,0.00,,CLR,0.00,VWS V14.00,2013-04-22 06:30:00,
2013-04-21 23:31:00,64.7,51.8,29.88,NE,50,0.0,0.0,63,0.00,,CLR,0.00,VWS V14.00,2013-04-22 06:31:00,
2013-04-21 23:36:00,64.7,52.3,29.88,NE,50,0.0,0.0,64,0.00,,CLR,0.00,VWS V14.00,2013-04-22 06:36:00,
2013-04-21 23:41:00,64.4,51.5,29.88,NE,50,0.0,0.0,63,0.00,,CLR,0.00,VWS V14.00,2013-04-22 06:41:00,
2013-04-21 23:46:00,64.0,51.6,29.88,NE,50,0.0,0.0,64,0.00,,CLR,0.00,VWS V14.00,2013-04-22 06:46:00,
2013-04-21 23:51:00,63.8,51.4,29.88,NE,50,0.0,0.0,64,0.00,,CLR,0.00,VWS V14.00,2013-04-22 06:51:00,
2013-04-21 23:56:00,63.7,51.7,29.88,NE,50,0.0,0.0,65,0.00,,CLR,0.00,VWS V14.00,2013-04-22 06:56:00,